sensor_id;sensor_type;location;lat;lon;timestamp;pressure;altitude;pressure_sealevel;temperature;humidity
22018;BME280;11173;51.050;7.108;2023-04-24T00:00:16;98102.25;;;10.57;64.21
22018;BME280;11173;51.050;7.108;2023-04-24T00:10:37;98089.56;;;10.56;64.84
22018;BME280;11173;51.050;7.108;2023-04-24T00:20:58;98094.34;;;10.55;64.55
22018;BME280;11173;51.050;7.108;2023-04-24T00:31:19;98084.72;;;10.47;64.69
22018;BME280;11173;51.050;7.108;2023-04-24T00:41:39;98075.44;;;10.41;64.29
22018;BME280;11173;51.050;7.108;2023-04-24T00:52:00;98071.38;;;10.33;64.56
22018;BME280;11173;51.050;7.108;2023-04-24T01:02:21;98076.94;;;10.33;64.50
22018;BME280;11173;51.050;7.108;2023-04-24T01:12:43;98070.47;;;10.36;64.05
22018;BME280;11173;51.050;7.108;2023-04-24T01:23:03;98073.25;;;10.36;64.16
22018;BME280;11173;51.050;7.108;2023-04-24T01:33:24;98063.47;;;10.31;60.21
22018;BME280;11173;51.050;7.108;2023-04-24T01:43:45;98079.06;;;10.29;61.94
22018;BME280;11173;51.050;7.108;2023-04-24T01:54:06;98086.72;;;10.15;59.70
22018;BME280;11173;51.050;7.108;2023-04-24T02:04:27;98086.03;;;10.02;58.55
22018;BME280;11173;51.050;7.108;2023-04-24T02:14:47;98093.16;;;9.81;60.23
22018;BME280;11173;51.050;7.108;2023-04-24T02:25:08;98103.09;;;9.47;60.07
22018;BME280;11173;51.050;7.108;2023-04-24T02:35:28;98129.22;;;9.15;60.07
22018;BME280;11173;51.050;7.108;2023-04-24T02:45:50;98125.72;;;8.89;60.96
22018;BME280;11173;51.050;7.108;2023-04-24T02:56:10;98131.38;;;8.72;60.99
22018;BME280;11173;51.050;7.108;2023-04-24T03:06:32;98141.03;;;8.68;62.32
22018;BME280;11173;51.050;7.108;2023-04-24T03:16:55;98136.69;;;8.67;61.72
22018;BME280;11173;51.050;7.108;2023-04-24T03:27:16;98153.13;;;8.74;61.70
22018;BME280;11173;51.050;7.108;2023-04-24T03:37:36;98157.03;;;8.76;61.86
22018;BME280;11173;51.050;7.108;2023-04-24T03:47:57;98152.56;;;8.79;60.74
22018;BME280;11173;51.050;7.108;2023-04-24T03:58:17;98161.66;;;8.80;62.19
22018;BME280;11173;51.050;7.108;2023-04-24T04:08:38;98164.88;;;8.78;61.81
22018;BME280;11173;51.050;7.108;2023-04-24T04:18:58;98170.44;;;8.78;62.33
22018;BME280;11173;51.050;7.108;2023-04-24T04:29:19;98180.66;;;8.81;62.54
22018;BME280;11173;51.050;7.108;2023-04-24T04:39:40;98182.56;;;8.84;62.92
22018;BME280;11173;51.050;7.108;2023-04-24T04:50:01;98190.00;;;8.87;62.46
22018;BME280;11173;51.050;7.108;2023-04-24T05:00:21;98189.78;;;8.82;62.33
22018;BME280;11173;51.050;7.108;2023-04-24T05:10:42;98186.00;;;8.75;62.63
22018;BME280;11173;51.050;7.108;2023-04-24T05:21:02;98196.00;;;8.73;62.97
22018;BME280;11173;51.050;7.108;2023-04-24T05:31:23;98202.75;;;8.72;63.35
22018;BME280;11173;51.050;7.108;2023-04-24T05:41:44;98214.66;;;8.72;63.22
22018;BME280;11173;51.050;7.108;2023-04-24T05:52:04;98219.09;;;8.70;64.21
22018;BME280;11173;51.050;7.108;2023-04-24T06:02:26;98209.75;;;8.64;64.59
22018;BME280;11173;51.050;7.108;2023-04-24T06:12:47;98226.97;;;8.59;64.99
22018;BME280;11173;51.050;7.108;2023-04-24T06:23:08;98243.38;;;8.53;65.00
22018;BME280;11173;51.050;7.108;2023-04-24T06:33:29;98236.81;;;8.47;65.23
22018;BME280;11173;51.050;7.108;2023-04-24T06:43:49;98239.88;;;8.36;65.34
22018;BME280;11173;51.050;7.108;2023-04-24T06:54:10;98240.63;;;8.24;66.19
22018;BME280;11173;51.050;7.108;2023-04-24T07:04:31;98240.84;;;8.16;66.61
22018;BME280;11173;51.050;7.108;2023-04-24T07:14:51;98242.81;;;8.16;66.27
22018;BME280;11173;51.050;7.108;2023-04-24T07:25:12;98255.66;;;8.10;66.63
22018;BME280;11173;51.050;7.108;2023-04-24T07:35:35;98253.19;;;7.99;66.36
22018;BME280;11173;51.050;7.108;2023-04-24T07:45:56;98262.75;;;7.82;67.19
22018;BME280;11173;51.050;7.108;2023-04-24T07:56:17;98276.81;;;7.74;67.26
22018;BME280;11173;51.050;7.108;2023-04-24T08:06:37;98292.66;;;7.57;67.56
22018;BME280;11173;51.050;7.108;2023-04-24T08:16:58;98314.47;;;7.39;67.03
22018;BME280;11173;51.050;7.108;2023-04-24T08:27:20;98338.13;;;7.24;67.50
22018;BME280;11173;51.050;7.108;2023-04-24T08:37:41;98340.25;;;7.00;68.29
22018;BME280;11173;51.050;7.108;2023-04-24T08:48:02;98344.88;;;6.86;68.34
22018;BME280;11173;51.050;7.108;2023-04-24T08:58:24;98361.94;;;6.65;68.87
22018;BME280;11173;51.050;7.108;2023-04-24T09:08:45;98388.31;;;6.69;68.81
22018;BME280;11173;51.050;7.108;2023-04-24T09:19:08;98404.00;;;6.76;68.84
22018;BME280;11173;51.050;7.108;2023-04-24T09:29:29;98443.53;;;6.76;69.04
22018;BME280;11173;51.050;7.108;2023-04-24T09:40:06;98437.78;;;6.87;69.11
22018;BME280;11173;51.050;7.108;2023-04-24T09:50:29;98496.22;;;6.93;69.36
22018;BME280;11173;51.050;7.108;2023-04-24T10:00:55;98509.56;;;6.98;69.66
22018;BME280;11173;51.050;7.108;2023-04-24T10:11:16;98525.63;;;7.07;70.32
22018;BME280;11173;51.050;7.108;2023-04-24T10:21:37;98542.16;;;7.34;70.67
22018;BME280;11173;51.050;7.108;2023-04-24T10:32:02;98556.94;;;7.67;70.42
22018;BME280;11173;51.050;7.108;2023-04-24T10:42:23;98557.81;;;8.01;70.12
22018;BME280;11173;51.050;7.108;2023-04-24T10:52:47;98575.13;;;8.41;70.80
22018;BME280;11173;51.050;7.108;2023-04-24T11:03:22;98589.72;;;8.78;67.21
22018;BME280;11173;51.050;7.108;2023-04-24T11:34:45;98631.16;;;8.89;67.96
22018;BME280;11173;51.050;7.108;2023-04-24T11:45:10;98644.84;;;9.29;69.30
22018;BME280;11173;51.050;7.108;2023-04-24T11:55:31;98657.84;;;10.20;68.50
22018;BME280;11173;51.050;7.108;2023-04-24T12:05:51;98650.81;;;10.83;63.71
22018;BME280;11173;51.050;7.108;2023-04-24T12:16:12;98660.69;;;10.84;63.09
22018;BME280;11173;51.050;7.108;2023-04-24T12:26:33;98669.63;;;10.40;61.19
22018;BME280;11173;51.050;7.108;2023-04-24T12:36:53;98671.06;;;10.03;60.42
22018;BME280;11173;51.050;7.108;2023-04-24T12:47:14;98687.84;;;9.99;61.45
22018;BME280;11173;51.050;7.108;2023-04-24T12:57:35;98684.63;;;10.30;61.00
22018;BME280;11173;51.050;7.108;2023-04-24T13:07:57;98701.81;;;10.67;59.73
22018;BME280;11173;51.050;7.108;2023-04-24T13:18:17;98672.41;;;11.04;57.57
22018;BME280;11173;51.050;7.108;2023-04-24T13:28:38;98700.16;;;11.55;54.55
22018;BME280;11173;51.050;7.108;2023-04-24T13:38:58;98715.59;;;11.60;54.66
22018;BME280;11173;51.050;7.108;2023-04-24T13:49:20;98716.50;;;11.57;54.25
22018;BME280;11173;51.050;7.108;2023-04-24T13:59:40;98719.19;;;11.48;53.90
22018;BME280;11173;51.050;7.108;2023-04-24T14:10:01;98726.25;;;11.01;50.38
22018;BME280;11173;51.050;7.108;2023-04-24T14:20:22;98726.13;;;10.79;52.45
22018;BME280;11173;51.050;7.108;2023-04-24T14:30:43;98728.69;;;10.99;55.29
22018;BME280;11173;51.050;7.108;2023-04-24T14:41:03;98722.63;;;11.39;53.33
22018;BME280;11173;51.050;7.108;2023-04-24T14:51:29;98739.03;;;11.50;52.28
22018;BME280;11173;51.050;7.108;2023-04-24T15:01:51;98760.47;;;11.27;52.93
22018;BME280;11173;51.050;7.108;2023-04-24T15:12:13;98757.44;;;11.47;51.98
22018;BME280;11173;51.050;7.108;2023-04-24T15:22:33;98751.53;;;11.58;52.66
22018;BME280;11173;51.050;7.108;2023-04-24T15:32:54;98760.63;;;11.71;49.82
22018;BME280;11173;51.050;7.108;2023-04-24T15:43:15;98757.69;;;11.40;50.02
22018;BME280;11173;51.050;7.108;2023-04-24T15:53:36;98749.22;;;11.18;48.37
22018;BME280;11173;51.050;7.108;2023-04-24T16:03:57;98761.25;;;11.15;50.25
22018;BME280;11173;51.050;7.108;2023-04-24T16:14:17;98756.78;;;11.18;50.40
22018;BME280;11173;51.050;7.108;2023-04-24T16:24:38;98751.09;;;11.21;50.30
22018;BME280;11173;51.050;7.108;2023-04-24T16:34:58;98760.69;;;11.07;50.78
22018;BME280;11173;51.050;7.108;2023-04-24T16:45:19;98769.50;;;10.93;52.02
22018;BME280;11173;51.050;7.108;2023-04-24T16:55:40;98769.72;;;10.99;52.25
22018;BME280;11173;51.050;7.108;2023-04-24T17:06:00;98770.25;;;10.93;51.30
22018;BME280;11173;51.050;7.108;2023-04-24T17:16:21;98766.25;;;10.94;53.04
22018;BME280;11173;51.050;7.108;2023-04-24T17:26:42;98788.22;;;11.05;51.30
22018;BME280;11173;51.050;7.108;2023-04-24T17:37:02;98797.78;;;10.79;52.06
22018;BME280;11173;51.050;7.108;2023-04-24T17:47:24;98795.44;;;10.35;53.21
22018;BME280;11173;51.050;7.108;2023-04-24T17:57:46;98797.00;;;10.20;51.93
22018;BME280;11173;51.050;7.108;2023-04-24T18:08:07;98806.63;;;10.02;51.80
22018;BME280;11173;51.050;7.108;2023-04-24T18:18:27;98807.53;;;9.66;52.22
22018;BME280;11173;51.050;7.108;2023-04-24T18:28:48;98825.22;;;9.23;52.96
22018;BME280;11173;51.050;7.108;2023-04-24T18:39:08;98835.72;;;8.75;54.30
22018;BME280;11173;51.050;7.108;2023-04-24T18:49:29;98843.25;;;8.35;54.19
22018;BME280;11173;51.050;7.108;2023-04-24T18:59:50;98865.66;;;8.01;55.32
22018;BME280;11173;51.050;7.108;2023-04-24T19:10:11;98868.84;;;7.75;56.32
22018;BME280;11173;51.050;7.108;2023-04-24T19:20:32;98885.91;;;7.47;56.58
22018;BME280;11173;51.050;7.108;2023-04-24T19:30:55;98896.16;;;7.19;57.24
22018;BME280;11173;51.050;7.108;2023-04-24T19:41:18;98899.63;;;6.92;57.78
22018;BME280;11173;51.050;7.108;2023-04-24T19:51:38;98897.88;;;6.75;58.14
22018;BME280;11173;51.050;7.108;2023-04-24T20:01:59;98895.19;;;6.68;58.74
22018;BME280;11173;51.050;7.108;2023-04-24T20:12:20;98891.63;;;6.67;59.04
22018;BME280;11173;51.050;7.108;2023-04-24T20:22:40;98887.34;;;6.63;59.17
22018;BME280;11173;51.050;7.108;2023-04-24T20:33:01;98904.03;;;6.55;59.45
22018;BME280;11173;51.050;7.108;2023-04-24T20:45:26;98874.34;;;6.18;59.75
22018;BME280;11173;51.050;7.108;2023-04-24T20:55:26;98895.81;;;6.03;59.83
22018;BME280;11173;51.050;7.108;2023-04-24T21:05:26;98897.16;;;5.84;60.40
22018;BME280;11173;51.050;7.108;2023-04-24T21:15:27;98903.56;;;5.70;60.89
22018;BME280;11173;51.050;7.108;2023-04-24T21:25:28;98911.53;;;5.61;61.15
22018;BME280;11173;51.050;7.108;2023-04-24T21:35:29;98908.06;;;5.50;61.41
22018;BME280;11173;51.050;7.108;2023-04-24T21:45:29;98891.19;;;5.26;61.52
22018;BME280;11173;51.050;7.108;2023-04-24T21:55:30;98882.63;;;5.06;62.12
22018;BME280;11173;51.050;7.108;2023-04-24T22:05:30;98896.03;;;5.08;62.11
22018;BME280;11173;51.050;7.108;2023-04-24T22:15:30;98899.56;;;5.08;62.73
22018;BME280;11173;51.050;7.108;2023-04-24T22:25:31;98894.88;;;5.02;62.74
22018;BME280;11173;51.050;7.108;2023-04-24T22:35:31;98889.81;;;4.89;63.27
22018;BME280;11173;51.050;7.108;2023-04-24T22:45:32;98883.91;;;4.84;63.18
22018;BME280;11173;51.050;7.108;2023-04-24T22:55:32;98894.59;;;4.71;63.15
22018;BME280;11173;51.050;7.108;2023-04-24T23:05:33;98883.59;;;4.60;63.82
22018;BME280;11173;51.050;7.108;2023-04-24T23:15:33;98891.91;;;4.53;63.43
22018;BME280;11173;51.050;7.108;2023-04-24T23:25:34;98888.38;;;4.45;63.74
22018;BME280;11173;51.050;7.108;2023-04-24T23:35:34;98887.59;;;4.30;63.70
22018;BME280;11173;51.050;7.108;2023-04-24T23:45:35;98894.69;;;4.21;64.05
22018;BME280;11173;51.050;7.108;2023-04-24T23:55:36;98897.47;;;4.06;63.99
